Time;durP1;ratioP1;P1;durP2;ratioP2;P2;SDS_P1;SDS_P2;PMS_P1;PMS_P2;Temp;Humidity;BMP_temperature;BMP_pressure;BME280_temperature;BME280_humidity;BME280_pressure;Samples;Min_cycle;Max_cycle;Signal;HPM_P1;HPM_P2
2022/12/04 00:01:14;;;;;;;5.45;4.00;;;14.20;68.10;;;;;;5125354;28;20016;-68
2022/12/04 00:03:40;;;;;;;4.13;3.47;;;14.20;67.90;;;;;;5125349;28;20019;-67
2022/12/04 00:06:12;;;;;;;4.90;3.58;;;14.20;67.90;;;;;;5125273;28;20012;-68
2022/12/04 00:08:38;;;;;;;4.28;3.53;;;14.20;67.80;;;;;;5125207;28;20082;-68
2022/12/04 00:11:05;;;;;;;4.35;3.83;;;14.20;67.80;;;;;;5125177;28;20196;-67
2022/12/04 00:13:31;;;;;;;5.30;4.15;;;14.20;67.80;;;;;;5125116;28;20319;-67
2022/12/04 00:15:59;;;;;;;5.32;3.75;;;14.20;67.80;;;;;;5124978;28;20244;-67
2022/12/04 00:18:25;;;;;;;4.20;3.67;;;14.20;67.80;;;;;;5125060;28;20019;-67
2022/12/04 00:20:51;;;;;;;4.00;3.47;;;14.20;67.70;;;;;;5124935;28;20204;-68
2022/12/04 00:23:17;;;;;;;4.80;3.90;;;14.20;67.70;;;;;;5124949;28;20015;-68
2022/12/04 00:25:47;;;;;;;4.72;3.80;;;14.30;67.60;;;;;;5124940;28;20081;-67
2022/12/04 00:28:17;;;;;;;5.07;3.47;;;14.30;67.60;;;;;;5141021;27;20042;-68
2022/12/04 00:30:46;;;;;;;4.85;3.72;;;14.20;67.50;;;;;;5124794;28;20350;-68
2022/12/04 00:33:12;;;;;;;;;;;14.20;67.50;;;;;;5107056;28;20024;-68
2022/12/04 00:35:38;;;;;;;5.55;4.10;;;14.30;67.60;;;;;;5124399;28;20213;-68
2022/12/04 00:38:04;;;;;;;4.63;3.53;;;14.20;67.50;;;;;;5124660;28;20042;-67
2022/12/04 00:40:30;;;;;;;4.53;3.45;;;14.30;67.50;;;;;;5124711;28;20038;-68
2022/12/04 00:42:55;;;;;;;4.03;3.35;;;14.30;67.50;;;;;;5124392;28;20043;-66
2022/12/04 00:45:21;;;;;;;5.63;3.88;;;14.20;67.50;;;;;;5140516;27;20020;-67
2022/12/04 00:47:47;;;;;;;5.32;3.70;;;14.20;67.50;;;;;;5124475;28;20016;-67
2022/12/04 00:50:12;;;;;;;3.97;3.35;;;14.20;67.70;;;;;;5124391;28;20022;-68
2022/12/04 00:52:38;;;;;;;5.05;4.00;;;14.20;67.90;;;;;;5124363;28;20023;-67
2022/12/04 00:55:05;;;;;;;4.72;4.00;;;14.20;68.00;;;;;;5124213;28;20030;-68
2022/12/04 00:57:30;;;;;;;5.28;3.70;;;14.20;68.00;;;;;;5124298;28;20088;-68
2022/12/04 00:59:56;;;;;;;4.70;3.95;;;14.20;68.10;;;;;;5106061;28;20323;-68
2022/12/04 01:02:22;;;;;;;5.60;4.03;;;14.20;68.00;;;;;;5124162;28;20311;-68
2022/12/04 01:04:47;;;;;;;4.32;3.53;;;14.20;68.00;;;;;;5124065;28;20020;-68
2022/12/04 01:07:13;;;;;;;4.20;3.42;;;14.20;68.00;;;;;;5124130;28;20030;-68
2022/12/04 01:09:39;;;;;;;4.57;3.80;;;14.10;68.10;;;;;;5123946;28;20304;-68
2022/12/04 01:12:05;;;;;;;4.10;3.60;;;14.20;68.10;;;;;;5123960;28;20032;-67
2022/12/04 01:14:31;;;;;;;5.03;4.07;;;14.20;68.10;;;;;;5123867;28;20028;-67
2022/12/04 01:16:56;;;;;;;4.70;3.60;;;14.20;67.90;;;;;;5123892;28;20012;-68
2022/12/04 01:19:22;;;;;;;4.45;3.35;;;14.20;67.90;;;;;;5123860;28;20016;-69
2022/12/04 01:21:48;;;;;;;4.07;3.15;;;14.20;67.90;;;;;;5123822;28;20319;-68
2022/12/04 01:24:14;;;;;;;4.60;3.60;;;14.20;67.80;;;;;;5123742;28;20026;-68
2022/12/04 01:26:39;;;;;;;4.63;3.65;;;14.20;67.80;;;;;;5123691;28;20283;-67
2022/12/04 01:29:05;;;;;;;4.35;3.58;;;14.20;67.80;;;;;;5123596;28;20031;-68
2022/12/04 01:31:31;;;;;;;4.07;3.33;;;14.20;67.80;;;;;;5123591;28;20035;-68
2022/12/04 01:33:57;;;;;;;5.40;4.18;;;14.20;67.70;;;;;;5123506;28;20019;-67
2022/12/04 01:36:26;;;;;;;6.63;4.68;;;14.20;67.70;;;;;;5123304;28;20015;-68
2022/12/04 01:38:52;;;;;;;4.45;3.47;;;14.20;67.60;;;;;;5123489;28;20023;-67
2022/12/04 01:41:24;;;;;;;4.05;3.35;;;14.30;67.60;;;;;;5122902;28;20035;-68
2022/12/04 01:44:13;;;;;;;4.55;3.92;;;14.20;67.40;;;;;;5123303;28;20044;-68
2022/12/04 01:46:41;;;;;;;4.82;3.70;;;14.30;67.40;;;;;;5123263;28;20023;-68
2022/12/04 01:49:11;;;;;;;5.57;3.67;;;14.30;67.40;;;;;;5122493;28;20072;-67
2022/12/04 01:51:46;;;;;;;4.65;3.63;;;14.30;67.30;;;;;;5123273;28;20015;-67
2022/12/04 01:54:19;;;;;;;5.07;4.30;;;14.30;67.50;;;;;;5123166;28;20024;-69
2022/12/04 01:57:05;;;;;;;5.45;3.92;;;14.30;67.50;;;;;;5122994;28;20047;-68
2022/12/04 01:59:37;;;;;;;5.45;4.03;;;14.20;67.40;;;;;;5104888;28;20043;-67
2022/12/04 02:02:09;;;;;;;4.50;3.40;;;14.20;67.70;;;;;;5123069;28;20008;-67
2022/12/04 02:04:37;;;;;;;4.65;3.97;;;14.20;67.90;;;;;;5123025;28;20199;-68
2022/12/04 02:07:03;;;;;;;4.27;3.47;;;14.20;67.90;;;;;;5123011;28;20064;-68
2022/12/04 02:09:30;;;;;;;4.55;3.47;;;14.20;67.90;;;;;;5122926;28;20015;-68
2022/12/04 02:12:34;;;;;;;4.80;3.83;;;14.20;67.90;;;;;;5122874;28;20015;-67
2022/12/04 02:15:14;;;;;;;5.07;3.92;;;14.20;67.80;;;;;;5122739;28;20015;-68
2022/12/04 02:18:10;;;;;;;4.30;3.50;;;14.20;67.80;;;;;;5122811;28;20022;-68
2022/12/04 02:20:54;;;;;;;3.95;3.53;;;14.10;67.80;;;;;;5122788;28;20026;-67
2022/12/04 02:23:57;;;;;;;5.30;3.85;;;14.20;67.90;;;;;;5122677;28;20196;-67
2022/12/04 02:26:39;;;;;;;5.65;4.28;;;14.20;67.80;;;;;;5122708;28;20020;-66
2022/12/04 02:29:13;;;;;;;4.40;3.40;;;14.20;67.70;;;;;;5122691;28;20046;-68
2022/12/04 02:31:46;;;;;;;4.55;3.83;;;14.20;67.70;;;;;;5122641;28;20069;-68
2022/12/04 02:34:28;;;;;;;4.65;3.72;;;14.20;67.70;;;;;;5122550;28;20027;-68
2022/12/04 02:37:07;;;;;;;4.88;4.03;;;14.20;67.70;;;;;;5122632;28;20027;-69
2022/12/04 02:39:35;;;;;;;4.57;3.80;;;14.20;67.60;;;;;;5122561;28;20019;-67
2022/12/04 02:42:06;;;;;;;4.32;3.60;;;14.20;67.70;;;;;;5122360;28;20103;-68
2022/12/04 02:44:48;;;;;;;5.03;3.70;;;14.20;67.60;;;;;;5122407;28;20038;-66
2022/12/04 02:47:18;;;;;;;4.93;4.05;;;14.20;67.50;;;;;;5122543;28;20019;-68
2022/12/04 02:49:50;;;;;;;4.90;4.00;;;14.30;67.60;;;;;;5122499;28;20020;-67
2022/12/04 02:52:23;;;;;;;5.28;4.03;;;14.20;67.50;;;;;;5122505;28;20016;-68
2022/12/04 02:54:56;;;;;;;5.18;4.05;;;14.30;67.60;;;;;;5122355;28;20316;-67
2022/12/04 02:57:28;;;;;;;4.28;3.75;;;14.20;67.40;;;;;;5122369;28;20020;-68
2022/12/04 02:59:56;;;;;;;4.53;3.95;;;14.20;67.40;;;;;;5124519;28;20030;-68
2022/12/04 03:02:34;;;;;;;5.17;4.13;;;14.20;67.40;;;;;;5126465;28;20012;-68
2022/12/04 03:05:06;;;;;;;5.45;4.22;;;14.30;67.50;;;;;;5126474;28;20024;-68
2022/12/04 03:07:56;;;;;;;4.60;3.90;;;14.20;67.50;;;;;;5126478;28;20069;-67
2022/12/04 03:10:36;;;;;;;4.72;3.58;;;14.20;67.60;;;;;;5126365;28;20029;-67
2022/12/04 03:13:10;;;;;;;4.25;3.47;;;14.20;67.80;;;;;;5126370;28;20061;-68
2022/12/04 03:16:07;;;;;;;5.97;4.90;;;14.20;67.90;;;;;;5126192;28;20323;-69
2022/12/04 03:18:51;;;;;;;4.90;3.97;;;14.20;67.80;;;;;;5123072;28;20419;-68
2022/12/04 03:21:20;;;;;;;4.85;3.78;;;14.20;67.80;;;;;;5126088;28;20071;-67
2022/12/04 03:24:12;;;;;;;5.50;3.88;;;14.20;67.90;;;;;;5126097;28;20016;-68
2022/12/04 03:26:47;;;;;;;4.85;3.97;;;14.20;67.80;;;;;;5094602;28;20043;-67
2022/12/04 03:29:26;;;;;;;4.50;3.50;;;14.20;67.90;;;;;;5126027;28;20061;-68
2022/12/04 03:32:19;;;;;;;7.22;4.50;;;14.10;67.80;;;;;;5125994;28;20016;-68
2022/12/04 03:35:15;;;;;;;4.38;3.42;;;14.10;67.90;;;;;;5125801;28;20011;-67
2022/12/04 03:38:14;;;;;;;4.75;3.83;;;14.20;67.90;;;;;;5121667;28;20051;-68
2022/12/04 03:40:56;;;;;;;5.90;4.15;;;14.20;67.90;;;;;;5097975;28;20030;-67
2022/12/04 03:43:26;;;;;;;4.35;3.10;;;14.20;67.80;;;;;;5125560;28;20116;-68
2022/12/04 03:45:57;;;;;;;5.57;4.22;;;14.20;67.70;;;;;;5125582;28;20024;-68
2022/12/04 03:48:30;;;;;;;5.53;3.88;;;14.20;67.70;;;;;;5125654;28;20015;-68
2022/12/04 03:51:14;;;;;;;5.63;4.13;;;14.20;67.70;;;;;;5125596;28;20020;-68
2022/12/04 03:53:51;;;;;;;5.32;3.83;;;14.20;67.60;;;;;;5125525;28;20015;-68
2022/12/04 03:56:31;;;;;;;4.78;3.70;;;14.20;67.50;;;;;;5125433;28;20024;-68
2022/12/04 03:59:10;;;;;;;5.43;4.13;;;14.30;67.50;;;;;;5125491;28;20011;-68
2022/12/04 04:01:41;;;;;;;4.78;3.70;;;14.20;67.40;;;;;;5125459;28;20012;-68
2022/12/04 04:04:14;;;;;;;5.45;4.32;;;14.20;67.30;;;;;;5125405;28;20016;-68
2022/12/04 04:06:47;;;;;;;4.72;3.83;;;14.30;67.30;;;;;;5125294;28;20307;-68
2022/12/04 04:09:20;;;;;;;4.63;4.05;;;14.30;67.30;;;;;;5125345;28;20031;-68
2022/12/04 04:12:01;;;;;;;5.43;4.10;;;14.30;67.30;;;;;;5124508;28;20022;-67
2022/12/04 04:26:01;;;;;;;4.32;3.42;;;14.20;67.60;;;;;;5124989;28;20052;-68
2022/12/04 04:28:38;;;;;;;4.97;3.80;;;14.20;67.60;;;;;;5124833;28;20035;-67
2022/12/04 04:31:12;;;;;;;4.10;3.53;;;14.10;67.60;;;;;;5124860;28;20653;-67
2022/12/04 04:34:04;;;;;;;5.13;3.90;;;14.20;67.80;;;;;;5124788;28;20038;-68
2022/12/04 04:37:05;;;;;;;4.75;3.88;;;14.20;67.70;;;;;;5082627;28;20363;-67
2022/12/04 04:39:37;;;;;;;5.03;4.10;;;14.20;67.70;;;;;;5124626;28;20019;-67
2022/12/04 04:42:16;;;;;;;4.60;3.70;;;14.10;67.90;;;;;;5124412;28;20059;-68
2022/12/04 04:45:00;;;;;;;4.22;3.75;;;14.20;67.90;;;;;;5124473;28;20016;-69
2022/12/04 04:47:53;;;;;;;4.72;3.88;;;14.20;67.90;;;;;;5124511;28;20023;-67
2022/12/04 04:50:20;;;;;;;4.95;4.30;;;14.20;67.70;;;;;;5124466;28;20086;-67
2022/12/04 04:52:52;;;;;;;5.38;4.05;;;14.20;67.70;;;;;;5124380;28;20054;-68
2022/12/04 04:55:19;;;;;;;5.10;3.92;;;14.20;67.70;;;;;;5124335;28;20030;-69
2022/12/04 04:57:45;;;;;;;3.90;3.47;;;14.20;67.70;;;;;;5124295;28;20019;-67
2022/12/04 05:00:14;;;;;;;4.38;3.42;;;14.20;67.70;;;;;;5106044;28;20180;-68
2022/12/04 05:02:41;;;;;;;4.13;3.47;;;14.20;67.60;;;;;;5124223;28;20019;-66
2022/12/04 05:05:07;;;;;;;5.55;4.15;;;14.20;67.60;;;;;;5124158;28;20027;-67
2022/12/04 05:07:33;;;;;;;5.55;3.60;;;14.30;67.60;;;;;;5124107;28;20016;-68
2022/12/04 05:09:59;;;;;;;4.85;3.78;;;14.30;67.60;;;;;;5124020;28;20092;-68
2022/12/04 05:12:25;;;;;;;4.20;3.63;;;14.20;67.50;;;;;;5123958;28;20019;-68
2022/12/04 05:14:50;;;;;;;4.63;3.35;;;14.20;67.40;;;;;;5123824;28;20031;-67
2022/12/04 05:17:16;;;;;;;5.55;4.05;;;14.20;67.40;;;;;;5123790;28;20042;-67
2022/12/04 05:19:57;;;;;;;4.07;3.40;;;14.20;67.30;;;;;;5123804;28;20026;-68
2022/12/04 05:22:34;;;;;;;5.40;4.40;;;14.30;67.30;;;;;;5123122;28;20016;-68
2022/12/04 05:25:00;;;;;;;4.63;4.10;;;14.30;67.30;;;;;;5123658;28;20043;-68
2022/12/04 05:27:27;;;;;;;5.10;3.90;;;14.30;67.40;;;;;;5123656;28;20323;-67
2022/12/04 05:29:56;;;;;;;4.60;3.67;;;14.30;67.40;;;;;;5123730;28;20085;-68
2022/12/04 05:32:24;;;;;;;4.90;3.97;;;14.20;67.40;;;;;;5123817;28;20096;-67
2022/12/04 05:34:52;;;;;;;5.13;4.22;;;14.20;67.60;;;;;;5123516;28;20041;-68
2022/12/04 05:37:18;;;;;;;5.00;3.85;;;14.20;67.70;;;;;;5123512;28;20196;-68
2022/12/04 05:39:44;;;;;;;5.47;4.22;;;14.20;67.70;;;;;;5123475;28;20027;-67
2022/12/04 05:42:11;;;;;;;5.05;3.47;;;14.20;67.70;;;;;;5123305;28;20265;-67
2022/12/04 05:44:37;;;;;;;4.95;3.63;;;14.20;67.70;;;;;;5123461;28;20028;-68
2022/12/04 05:47:03;;;;;;;4.63;3.63;;;14.20;67.70;;;;;;5123396;28;20075;-68
2022/12/04 05:49:32;;;;;;;5.82;3.97;;;14.20;67.70;;;;;;5123348;28;20023;-67
2022/12/04 05:51:59;;;;;;;4.53;3.80;;;14.20;67.70;;;;;;5123253;28;20053;-68
2022/12/04 05:54:25;;;;;;;3.95;3.55;;;14.20;67.70;;;;;;5123104;28;20046;-68
2022/12/04 05:56:51;;;;;;;4.57;3.63;;;14.20;67.80;;;;;;5123131;28;20219;-67
2022/12/04 05:59:17;;;;;;;4.68;3.65;;;14.20;67.80;;;;;;5123159;28;20227;-67
2022/12/04 06:01:43;;;;;;;5.03;3.95;;;14.20;67.50;;;;;;5123068;28;20030;-67
2022/12/04 06:04:10;;;;;;;4.97;3.72;;;14.20;67.60;;;;;;5123116;28;20042;-67
2022/12/04 06:06:37;;;;;;;4.78;3.75;;;14.20;67.50;;;;;;5122934;28;20080;-68
2022/12/04 06:09:04;;;;;;;5.95;4.13;;;14.20;67.50;;;;;;5122967;28;20027;-68
2022/12/04 06:11:34;;;;;;;5.55;4.55;;;14.20;67.50;;;;;;5122879;28;20015;-68
2022/12/04 06:14:02;;;;;;;6.25;4.10;;;14.20;67.50;;;;;;5122897;28;20015;-68
2022/12/04 06:16:30;;;;;;;5.68;4.43;;;14.20;67.40;;;;;;5122792;28;20020;-68
2022/12/04 06:18:58;;;;;;;4.45;3.63;;;14.20;67.40;;;;;;5122820;28;20018;-67
2022/12/04 06:21:26;;;;;;;4.63;3.92;;;14.20;67.30;;;;;;5122861;28;20020;-67
2022/12/04 06:23:53;;;;;;;4.20;3.60;;;14.20;67.30;;;;;;5122867;28;20277;-68
2022/12/04 06:26:19;;;;;;;3.97;2.97;;;14.20;67.30;;;;;;5122717;28;20016;-67
2022/12/04 06:28:45;;;;;;;4.93;3.50;;;14.30;67.30;;;;;;5122781;28;20075;-68
2022/12/04 06:31:12;;;;;;;4.53;3.83;;;14.20;67.20;;;;;;5122700;28;20043;-67
2022/12/04 06:33:39;;;;;;;3.63;3.20;;;14.20;67.10;;;;;;5122336;28;20024;-68
2022/12/04 06:36:10;;;;;;;5.07;4.32;;;14.20;67.20;;;;;;5122513;28;20019;-68
2022/12/04 06:38:37;;;;;;;4.32;3.40;;;14.20;67.20;;;;;;5122604;28;20018;-68
2022/12/04 06:41:07;;;;;;;5.40;4.18;;;14.20;67.20;;;;;;5122594;28;20030;-67
2022/12/04 06:43:34;;;;;;;3.92;3.17;;;14.20;67.30;;;;;;5122331;28;20058;-67
2022/12/04 06:46:05;;;;;;;4.95;3.90;;;14.20;67.40;;;;;;5122513;28;20315;-68
2022/12/04 06:48:32;;;;;;;4.20;3.47;;;14.20;67.60;;;;;;5122491;28;20030;-68
2022/12/04 06:51:02;;;;;;;4.63;3.47;;;14.20;67.70;;;;;;5122498;28;20090;-67
2022/12/04 06:53:29;;;;;;;4.63;3.70;;;14.20;67.80;;;;;;5122413;28;20095;-68
2022/12/04 06:56:00;;;;;;;4.32;3.63;;;14.10;67.80;;;;;;5122317;28;20090;-67
2022/12/04 06:58:27;;;;;;;5.03;3.72;;;14.10;67.80;;;;;;5104203;28;20040;-67
2022/12/04 07:00:53;;;;;;;5.63;4.13;;;14.20;67.80;;;;;;5122330;28;20027;-69
2022/12/04 07:03:20;;;;;;;4.38;3.85;;;14.20;67.90;;;;;;5122359;28;20319;-67
2022/12/04 07:05:46;;;;;;;4.07;3.45;;;14.20;67.80;;;;;;5122276;28;20023;-68
2022/12/04 07:08:12;;;;;;;4.43;3.58;;;14.20;67.70;;;;;;5122321;28;20064;-68
2022/12/04 07:10:38;;;;;;;5.82;4.30;;;14.20;67.70;;;;;;5122378;28;20039;-68
2022/12/04 07:13:04;;;;;;;5.03;4.05;;;14.20;67.60;;;;;;5122288;28;20081;-67
2022/12/04 07:15:32;;;;;;;4.32;3.45;;;14.20;67.50;;;;;;5122183;28;20016;-67
2022/12/04 07:17:58;;;;;;;5.03;3.80;;;14.20;67.50;;;;;;5122131;28;20145;-67
2022/12/04 07:20:24;;;;;;;5.07;4.03;;;14.20;67.50;;;;;;5122104;28;20022;-67
2022/12/04 07:22:50;;;;;;;4.80;3.85;;;14.20;67.50;;;;;;5122170;28;20016;-67
2022/12/04 07:25:16;;;;;;;5.60;4.00;;;14.20;67.40;;;;;;5122095;28;20019;-68
2022/12/04 07:27:42;;;;;;;6.13;4.20;;;14.30;67.50;;;;;;5122158;28;20024;-68
2022/12/04 07:30:09;;;;;;;4.15;3.70;;;14.20;67.30;;;;;;5122112;28;20343;-68
2022/12/04 07:32:35;;;;;;;4.32;3.65;;;14.30;67.30;;;;;;5122040;28;20023;-67
2022/12/04 07:35:01;;;;;;;4.75;3.42;;;14.30;67.30;;;;;;5121899;28;20064;-67
2022/12/04 07:37:27;;;;;;;5.05;3.67;;;14.30;67.20;;;;;;5122017;28;20015;-68
2022/12/04 07:39:52;;;;;;;4.80;4.05;;;14.30;67.20;;;;;;5122025;28;20050;-67
2022/12/04 07:42:19;;;;;;;4.25;3.55;;;14.30;67.10;;;;;;5121816;28;20036;-68
2022/12/04 07:44:45;;;;;;;4.72;3.55;;;14.30;67.10;;;;;;5122007;28;20249;-68
2022/12/04 07:47:12;;;;;;;3.75;3.03;;;14.30;67.00;;;;;;5124313;28;20008;-67
2022/12/04 07:49:38;;;;;;;5.78;4.65;;;14.30;66.90;;;;;;5125621;28;20073;-68
2022/12/04 07:52:04;;;;;;;4.22;3.50;;;14.40;66.90;;;;;;5125615;28;20300;-68
2022/12/04 07:54:29;;;;;;;6.45;4.00;;;14.40;66.90;;;;;;5125531;28;20031;-67
2022/12/04 07:56:55;;;;;;;4.80;3.70;;;14.40;66.80;;;;;;5125394;28;20083;-67
2022/12/04 07:59:21;;;;;;;4.40;3.92;;;14.40;66.80;;;;;;5125443;28;20019;-67
2022/12/04 08:01:47;;;;;;;4.82;3.50;;;14.40;66.90;;;;;;5125411;28;20043;-68
2022/12/04 08:04:12;;;;;;;6.00;4.13;;;14.30;66.90;;;;;;5125420;28;20246;-68
2022/12/04 08:06:39;;;;;;;4.22;3.40;;;14.30;67.00;;;;;;5125315;28;20023;-67
2022/12/04 08:09:05;;;;;;;4.28;3.58;;;14.30;67.00;;;;;;5125196;28;20231;-68
2022/12/04 08:11:31;;;;;;;4.85;3.55;;;14.30;67.10;;;;;;5125216;28;20078;-67
2022/12/04 08:13:59;;;;;;;6.13;4.00;;;14.30;67.20;;;;;;5125201;28;20250;-67
2022/12/04 08:16:27;;;;;;;5.10;3.95;;;14.30;67.30;;;;;;5125088;28;20047;-67
2022/12/04 08:18:54;;;;;;;4.43;3.60;;;14.20;67.10;;;;;;5125085;28;20028;-69
2022/12/04 08:21:22;;;;;;;5.20;3.60;;;14.20;67.20;;;;;;5125051;28;20510;-68
2022/12/04 08:23:49;;;;;;;5.10;3.80;;;14.20;67.30;;;;;;5124915;28;20043;-68
2022/12/04 08:26:15;;;;;;;4.60;3.63;;;14.30;67.40;;;;;;5124972;28;20327;-68
2022/12/04 08:28:41;;;;;;;5.88;4.15;;;14.20;67.50;;;;;;5124860;28;20303;-69
2022/12/04 08:31:12;;;;;;;4.57;3.53;;;14.20;67.60;;;;;;5124811;28;20024;-68
2022/12/04 08:33:38;;;;;;;4.45;3.95;;;14.20;67.60;;;;;;5124829;28;20023;-68
2022/12/04 08:36:09;;;;;;;5.10;4.25;;;14.20;67.50;;;;;;5124654;28;20016;-68
2022/12/04 08:38:35;;;;;;;5.45;4.25;;;14.20;67.50;;;;;;5124727;28;20267;-69
2022/12/04 08:41:03;;;;;;;4.82;3.88;;;14.20;67.50;;;;;;5124727;28;20077;-68
2022/12/04 08:43:29;;;;;;;5.07;3.75;;;14.30;67.60;;;;;;5124529;28;20086;-68
2022/12/04 08:46:03;;;;;;;5.07;3.95;;;14.20;67.60;;;;;;5124575;28;20095;-68
2022/12/04 08:48:29;;;;;;;4.70;4.00;;;14.20;67.60;;;;;;5124537;28;20020;-68
2022/12/04 08:50:56;;;;;;;5.32;3.85;;;14.20;67.70;;;;;;5124510;28;20350;-68
2022/12/04 08:53:22;;;;;;;4.47;3.88;;;14.20;67.70;;;;;;5124420;28;20023;-68
2022/12/04 08:55:49;;;;;;;4.30;3.80;;;14.20;67.50;;;;;;5124291;28;20351;-68
2022/12/04 08:58:15;;;;;;;4.57;3.75;;;14.30;67.50;;;;;;5124174;28;20012;-68
2022/12/04 09:00:41;;;;;;;4.15;3.42;;;14.30;67.60;;;;;;5124294;28;20031;-66
2022/12/04 09:03:15;;;;;;;4.15;3.65;;;14.30;67.60;;;;;;5124186;28;20015;-68
2022/12/04 09:05:41;;;;;;;5.03;3.85;;;14.30;67.50;;;;;;5124157;28;20012;-68
2022/12/04 09:08:07;;;;;;;3.95;3.28;;;14.30;67.50;;;;;;5124068;28;20043;-68
2022/12/04 09:10:34;;;;;;;4.13;3.63;;;14.30;67.50;;;;;;5123988;28;20026;-68
2022/12/04 09:13:00;;;;;;;4.32;3.67;;;14.30;67.50;;;;;;5124018;28;20045;-68
2022/12/04 09:15:26;;;;;;;4.97;3.80;;;14.30;67.50;;;;;;5123855;28;20037;-66
2022/12/04 09:17:52;;;;;;;4.63;3.42;;;14.30;67.40;;;;;;5123861;28;20263;-67
2022/12/04 09:20:18;;;;;;;3.83;3.42;;;14.30;67.40;;;;;;5123920;28;20019;-68
2022/12/04 09:22:43;;;;;;;4.65;3.80;;;14.30;67.30;;;;;;5123858;28;20019;-68
2022/12/04 09:25:10;;;;;;;4.82;3.67;;;14.30;67.30;;;;;;5123787;28;20015;-68
2022/12/04 09:27:40;;;;;;;5.95;3.92;;;14.40;67.30;;;;;;5123722;28;20024;-66
2022/12/04 09:30:07;;;;;;;4.35;3.88;;;14.40;67.20;;;;;;5123698;28;20125;-67
2022/12/04 09:32:33;;;;;;;4.88;3.83;;;14.40;67.30;;;;;;5123687;28;20253;-68
2022/12/04 09:34:59;;;;;;;5.07;3.75;;;14.40;67.20;;;;;;5123497;28;20016;-67
2022/12/04 09:37:24;;;;;;;4.47;3.72;;;14.40;67.20;;;;;;5123537;28;20039;-67
2022/12/04 09:39:50;;;;;;;4.60;3.75;;;14.40;67.20;;;;;;5123475;28;20073;-68
2022/12/04 09:42:19;;;;;;;4.13;3.53;;;14.30;67.20;;;;;;5123323;28;20084;-68
2022/12/04 09:45:08;;;;;;;4.78;3.60;;;14.40;67.20;;;;;;5123409;28;20370;-68
2022/12/04 09:47:45;;;;;;;4.60;3.67;;;14.40;67.20;;;;;;5123361;28;20027;-68
2022/12/04 09:50:19;;;;;;;5.35;3.92;;;14.40;67.20;;;;;;5123393;28;20031;-69
2022/12/04 09:52:45;;;;;;;4.80;3.47;;;14.40;67.10;;;;;;5123309;28;20022;-68
2022/12/04 09:55:40;;;;;;;4.68;3.85;;;14.40;67.20;;;;;;5123108;28;20043;-67
2022/12/04 09:58:14;;;;;;;4.03;3.63;;;14.40;67.00;;;;;;5104916;28;20083;-67
2022/12/04 10:00:43;;;;;;;4.20;3.47;;;14.40;67.20;;;;;;5123199;28;20015;-68
2022/12/04 10:03:15;;;;;;;4.38;3.50;;;14.40;67.10;;;;;;5123024;28;20015;-66
2022/12/04 10:05:52;;;;;;;4.97;3.70;;;14.40;67.10;;;;;;5122968;28;20011;-69
2022/12/04 10:08:27;;;;;;;5.03;3.92;;;14.40;67.10;;;;;;5122847;28;20026;-67
2022/12/04 10:11:24;;;;;;;4.63;3.60;;;14.40;67.10;;;;;;5122872;28;20086;-67
2022/12/04 10:14:03;;;;;;;3.97;3.00;;;14.40;67.10;;;;;;5122973;28;20255;-67
2022/12/04 10:16:45;;;;;;;4.40;3.47;;;14.40;67.20;;;;;;5122888;28;20042;-67
2022/12/04 10:19:26;;;;;;;5.25;3.75;;;14.40;67.10;;;;;;5122852;28;20011;-67
2022/12/04 10:22:34;;;;;;;6.50;4.07;;;14.40;67.00;;;;;;5122783;28;20311;-67
2022/12/04 10:25:18;;;;;;;4.35;3.90;;;14.40;67.00;;;;;;5122816;28;20015;-70
2022/12/04 10:27:59;;;;;;;4.70;3.78;;;14.40;67.10;;;;;;5122749;28;20020;-68
2022/12/04 10:30:32;;;;;;;4.65;4.10;;;14.50;67.00;;;;;;5122736;28;20020;-67
2022/12/04 10:33:22;;;;;;;4.70;3.80;;;14.50;67.10;;;;;;5122766;28;20038;-67
2022/12/04 10:35:51;;;;;;;5.05;3.63;;;14.50;67.00;;;;;;5122574;28;20019;-67
2022/12/04 10:38:20;;;;;;;4.07;3.53;;;14.50;67.10;;;;;;5122569;28;20019;-68
2022/12/04 10:40:47;;;;;;;;;;;14.50;67.10;;;;;;5123067;28;20030;-68
2022/12/04 10:43:41;;;;;;;4.70;3.55;;;14.50;67.10;;;;;;5122444;28;19923;-68
2022/12/04 10:46:22;;;;;;;4.03;3.58;;;14.40;67.10;;;;;;5122571;28;20026;-67
2022/12/04 10:48:53;;;;;;;4.20;3.25;;;14.50;67.20;;;;;;5122564;28;20016;-67
2022/12/04 10:51:21;;;;;;;4.53;3.40;;;14.50;67.10;;;;;;5122558;28;20019;-67
2022/12/04 10:53:48;;;;;;;4.73;3.60;;;14.50;67.10;;;;;;5122482;28;20022;-67
2022/12/04 10:56:16;;;;;;;3.25;2.95;;;14.50;67.00;;;;;;5104270;28;20077;-68
2022/12/04 10:58:53;;;;;;;3.67;3.30;;;14.50;67.00;;;;;;5122435;28;20038;-69
2022/12/04 11:01:20;;;;;;;4.18;3.50;;;14.50;66.90;;;;;;5104234;28;20023;-68
2022/12/04 11:03:59;;;;;;;4.40;3.55;;;14.60;66.90;;;;;;5122330;28;20016;-68
2022/12/04 11:06:26;;;;;;;5.03;4.10;;;14.60;66.80;;;;;;5122445;28;20027;-68
2022/12/04 11:08:53;;;;;;;4.15;3.38;;;14.60;66.90;;;;;;5122341;28;20365;-68
2022/12/04 11:11:26;;;;;;;4.68;3.67;;;14.60;66.80;;;;;;5122342;28;20034;-67
2022/12/04 11:14:15;;;;;;;5.22;4.03;;;14.60;66.80;;;;;;5122325;28;20023;-68
2022/12/04 11:16:44;;;;;;;4.20;3.10;;;14.60;66.70;;;;;;5122252;28;20022;-69
2022/12/04 11:19:23;;;;;;;3.75;3.40;;;14.60;66.80;;;;;;5122259;28;20020;-69
2022/12/04 11:21:51;;;;;;;4.70;3.92;;;14.60;66.70;;;;;;5105910;28;20020;-66
2022/12/04 11:24:39;;;;;;;4.20;3.23;;;14.60;66.70;;;;;;5126228;28;20035;-67
2022/12/04 11:27:06;;;;;;;4.15;3.72;;;14.60;66.50;;;;;;5108032;28;20107;-67
2022/12/04 11:29:41;;;;;;;3.88;3.47;;;14.60;66.70;;;;;;5126066;28;20050;-68
2022/12/04 11:32:33;;;;;;;4.35;3.50;;;14.60;66.70;;;;;;5126153;28;20024;-67
2022/12/04 11:35:27;;;;;;;4.05;3.17;;;14.60;66.70;;;;;;5125997;28;20024;-67
2022/12/04 11:38:16;;;;;;;4.93;3.85;;;14.70;66.60;;;;;;5122685;28;20226;-68
2022/12/04 11:40:51;;;;;;;5.35;4.00;;;14.60;66.80;;;;;;5114913;28;20038;-68
2022/12/04 11:43:18;;;;;;;5.30;3.55;;;14.60;66.70;;;;;;5125660;28;20039;-68
2022/12/04 11:46:02;;;;;;;4.07;3.38;;;14.60;66.80;;;;;;5125805;28;20030;-68
2022/12/04 11:48:40;;;;;;;4.68;4.10;;;14.60;66.70;;;;;;5125699;28;20203;-68
2022/12/04 11:51:15;;;;;;;4.57;3.28;;;14.60;66.80;;;;;;5125780;28;20019;-68
2022/12/04 11:54:14;;;;;;;4.13;3.15;;;14.60;66.80;;;;;;5125689;28;20020;-67
2022/12/04 11:57:15;;;;;;;4.05;3.58;;;14.60;66.80;;;;;;5114409;28;20058;-67
2022/12/04 11:59:44;;;;;;;4.15;3.63;;;14.60;66.70;;;;;;5125507;28;20028;-67
2022/12/04 12:02:24;;;;;;;3.90;3.28;;;14.60;66.90;;;;;;5125495;28;20082;-69
2022/12/04 12:05:19;;;;;;;4.47;3.35;;;14.60;66.80;;;;;;5125451;28;20028;-67
2022/12/04 12:08:29;;;;;;;4.70;3.65;;;14.60;66.80;;;;;;5125433;28;20086;-68
2022/12/04 12:11:13;;;;;;;4.35;3.50;;;14.60;66.70;;;;;;5121166;28;20035;-66
2022/12/04 12:14:14;;;;;;;4.55;3.70;;;14.60;66.80;;;;;;5125328;28;20078;-67
2022/12/04 12:16:42;;;;;;;4.50;3.60;;;14.60;66.70;;;;;;5124687;28;20031;-68
2022/12/04 12:19:29;;;;;;;4.28;3.25;;;14.60;66.80;;;;;;5125178;28;20018;-66
2022/12/04 12:22:20;;;;;;;4.15;3.25;;;14.60;66.70;;;;;;5125205;28;20102;-67
2022/12/04 12:24:52;;;;;;;3.80;3.40;;;14.60;66.60;;;;;;5115579;28;20035;-67
2022/12/04 12:27:36;;;;;;;3.55;2.92;;;14.60;66.70;;;;;;5124957;28;20319;-68
2022/12/04 12:30:08;;;;;;;4.07;3.25;;;14.70;66.50;;;;;;5125115;28;20046;-68
2022/12/04 12:32:43;;;;;;;4.38;3.03;;;14.70;66.60;;;;;;5124338;28;20056;-68
2022/12/04 12:35:33;;;;;;;4.93;3.63;;;14.70;66.40;;;;;;5124768;28;20053;-68
2022/12/04 12:38:03;;;;;;;3.67;3.25;;;14.70;66.30;;;;;;5124824;28;20019;-68
2022/12/04 12:40:47;;;;;;;4.65;3.85;;;14.70;66.40;;;;;;5124739;28;20050;-68
2022/12/04 12:43:26;;;;;;;4.38;3.42;;;14.70;66.40;;;;;;5124496;28;20077;-67
2022/12/04 12:45:54;;;;;;;;;;;14.70;66.50;;;;;;5125094;28;20039;-68
2022/12/04 12:48:30;;;;;;;3.88;3.40;;;14.70;66.50;;;;;;5124604;28;19929;-68
2022/12/04 12:51:28;;;;;;;4.13;3.50;;;14.60;66.60;;;;;;5124613;28;20030;-68
2022/12/04 12:53:57;;;;;;;;;;;14.70;66.60;;;;;;5093328;28;20335;-68
2022/12/04 12:56:37;;;;;;;4.82;3.75;;;14.60;66.60;;;;;;5124389;28;19946;-68
2022/12/04 12:59:06;;;;;;;4.07;3.17;;;14.60;66.60;;;;;;5124452;28;20049;-67
2022/12/04 13:01:41;;;;;;;3.50;3.17;;;14.70;66.60;;;;;;5124352;28;20045;-68
2022/12/04 13:04:12;;;;;;;3.95;3.53;;;14.70;66.50;;;;;;5124341;28;20027;-67
2022/12/04 13:06:42;;;;;;;3.80;3.10;;;14.70;66.40;;;;;;5124110;28;20086;-68
2022/12/04 13:09:20;;;;;;;4.05;3.50;;;14.70;66.50;;;;;;5124125;28;20210;-69
2022/12/04 13:11:49;;;;;;;4.67;3.53;;;14.70;66.20;;;;;;5105889;28;20072;-68
2022/12/04 13:14:15;;;;;;;3.90;3.28;;;14.80;66.20;;;;;;5124072;28;20064;-67
2022/12/04 13:16:47;;;;;;;3.70;3.00;;;14.70;66.10;;;;;;5123886;28;20083;-67
2022/12/04 13:19:27;;;;;;;3.80;3.10;;;14.80;66.00;;;;;;5124028;28;20019;-68
2022/12/04 13:22:07;;;;;;;4.13;3.50;;;14.80;65.90;;;;;;5123875;28;20019;-67
2022/12/04 13:24:38;;;;;;;4.45;3.58;;;14.90;65.90;;;;;;5123898;28;20020;-68
2022/12/04 13:27:51;;;;;;;3.90;3.47;;;14.90;65.70;;;;;;5123816;28;20027;-67